sensor_id;sensor_type;location;lat;lon;timestamp;pressure;altitude;pressure_sealevel;temperature;humidity
829;BME280;396;52.558;13.188;2023-09-19T00:02:26;100098.31;;;18.64;100.00
829;BME280;396;52.558;13.188;2023-09-19T00:04:54;100098.31;;;18.64;100.00
829;BME280;396;52.558;13.188;2023-09-19T00:07:21;100092.81;;;18.64;100.00
829;BME280;396;52.558;13.188;2023-09-19T00:09:48;100090.41;;;18.63;100.00
829;BME280;396;52.558;13.188;2023-09-19T00:12:14;100086.94;;;18.66;100.00
829;BME280;396;52.558;13.188;2023-09-19T00:14:41;100086.53;;;18.64;100.00
829;BME280;396;52.558;13.188;2023-09-19T00:17:09;100087.34;;;18.64;100.00
829;BME280;396;52.558;13.188;2023-09-19T00:19:36;100089.69;;;18.66;100.00
829;BME280;396;52.558;13.188;2023-09-19T00:22:03;100080.22;;;18.63;100.00
829;BME280;396;52.558;13.188;2023-09-19T00:24:30;100080.94;;;18.57;100.00
829;BME280;396;52.558;13.188;2023-09-19T00:26:57;100079.34;;;18.56;100.00
829;BME280;396;52.558;13.188;2023-09-19T00:29:25;100075.84;;;18.59;100.00
829;BME280;396;52.558;13.188;2023-09-19T00:31:54;100070.75;;;18.57;100.00
829;BME280;396;52.558;13.188;2023-09-19T00:34:23;100079.41;;;18.59;100.00
829;BME280;396;52.558;13.188;2023-09-19T00:36:50;100079.34;;;18.56;100.00
829;BME280;396;52.558;13.188;2023-09-19T00:39:18;100080.88;;;18.53;100.00
829;BME280;396;52.558;13.188;2023-09-19T00:41:45;100085.56;;;18.53;100.00
829;BME280;396;52.558;13.188;2023-09-19T00:44:12;100090.25;;;18.52;100.00
829;BME280;396;52.558;13.188;2023-09-19T00:46:41;100087.44;;;18.49;100.00
829;BME280;396;52.558;13.188;2023-09-19T00:49:09;100092.16;;;18.48;100.00
829;BME280;396;52.558;13.188;2023-09-19T00:51:37;100097.25;;;18.50;100.00
829;BME280;396;52.558;13.188;2023-09-19T00:54:11;100099.22;;;18.49;100.00
829;BME280;396;52.558;13.188;2023-09-19T00:56:38;100095.69;;;18.49;100.00
829;BME280;396;52.558;13.188;2023-09-19T00:59:05;100097.25;;;18.50;100.00
829;BME280;396;52.558;13.188;2023-09-19T01:01:32;100087.44;;;18.49;100.00
829;BME280;396;52.558;13.188;2023-09-19T01:03:59;100098.44;;;18.49;100.00
829;BME280;396;52.558;13.188;2023-09-19T01:06:26;100094.56;;;18.53;100.00
829;BME280;396;52.558;13.188;2023-09-19T01:08:54;100095.81;;;18.56;100.00
829;BME280;396;52.558;13.188;2023-09-19T01:11:25;100098.56;;;18.56;100.00
829;BME280;396;52.558;13.188;2023-09-19T01:14:00;100095.81;;;18.56;100.00
829;BME280;396;52.558;13.188;2023-09-19T01:16:33;100090.38;;;18.59;100.00
829;BME280;396;52.558;13.188;2023-09-19T01:19:23;100095.97;;;18.66;100.00
829;BME280;396;52.558;13.188;2023-09-19T01:22:06;100101.41;;;18.63;100.00
829;BME280;396;52.558;13.188;2023-09-19T01:25:00;100103.66;;;18.57;100.00
829;BME280;396;52.558;13.188;2023-09-19T01:27:50;100106.34;;;18.54;100.00
829;BME280;396;52.558;13.188;2023-09-19T01:30:24;100099.28;;;18.53;100.00
829;BME280;396;52.558;13.188;2023-09-19T01:32:54;100112.28;;;18.56;100.00
829;BME280;396;52.558;13.188;2023-09-19T01:35:22;100106.03;;;18.59;100.00
829;BME280;396;52.558;13.188;2023-09-19T01:37:49;100103.28;;;18.59;100.00
829;BME280;396;52.558;13.188;2023-09-19T01:40:18;100112.28;;;18.56;100.00
829;BME280;396;52.558;13.188;2023-09-19T01:42:58;100117.22;;;18.47;100.00
829;BME280;396;52.558;13.188;2023-09-19T01:45:34;100109.78;;;18.47;100.00
829;BME280;396;52.558;13.188;2023-09-19T01:48:15;100108.53;;;18.45;100.00
829;BME280;396;52.558;13.188;2023-09-19T01:50:54;100106.66;;;18.49;100.00
829;BME280;396;52.558;13.188;2023-09-19T01:53:26;100104.22;;;18.44;100.00
829;BME280;396;52.558;13.188;2023-09-19T01:55:54;100112.00;;;18.41;100.00
829;BME280;396;52.558;13.188;2023-09-19T01:58:28;100108.00;;;18.35;100.00
829;BME280;396;52.558;13.188;2023-09-19T02:00:58;100114.81;;;18.22;100.00
829;BME280;396;52.558;13.188;2023-09-19T02:03:26;100117.53;;;18.22;100.00
829;BME280;396;52.558;13.188;2023-09-19T02:05:54;100130.41;;;18.18;100.00
829;BME280;396;52.558;13.188;2023-09-19T02:08:22;100129.97;;;18.16;100.00
829;BME280;396;52.558;13.188;2023-09-19T02:10:50;100123.34;;;18.17;100.00
829;BME280;396;52.558;13.188;2023-09-19T02:13:18;100129.53;;;18.14;100.00
829;BME280;396;52.558;13.188;2023-09-19T02:15:46;100128.66;;;18.10;100.00
829;BME280;396;52.558;13.188;2023-09-19T02:18:14;100129.75;;;18.05;100.00
829;BME280;396;52.558;13.188;2023-09-19T02:20:41;100131.63;;;18.01;100.00
829;BME280;396;52.558;13.188;2023-09-19T02:23:08;100126.97;;;18.02;100.00
829;BME280;396;52.558;13.188;2023-09-19T02:25:35;100129.28;;;18.00;100.00
829;BME280;396;52.558;13.188;2023-09-19T02:28:04;100129.56;;;17.95;100.00
829;BME280;396;52.558;13.188;2023-09-19T02:30:31;100139.44;;;17.99;100.00
829;BME280;396;52.558;13.188;2023-09-19T02:32:57;100134.75;;;18.00;100.00
829;BME280;396;52.558;13.188;2023-09-19T02:35:28;100142.91;;;17.96;100.00
829;BME280;396;52.558;13.188;2023-09-19T02:37:58;100145.22;;;17.94;100.00
829;BME280;396;52.558;13.188;2023-09-19T02:40:25;100152.50;;;17.86;100.00
829;BME280;396;52.558;13.188;2023-09-19T02:42:54;100147.03;;;17.86;100.00
829;BME280;396;52.558;13.188;2023-09-19T02:45:21;100149.75;;;17.86;100.00
829;BME280;396;52.558;13.188;2023-09-19T02:47:49;100149.75;;;17.86;100.00
829;BME280;396;52.558;13.188;2023-09-19T02:50:16;100143.41;;;17.82;100.00
829;BME280;396;52.558;13.188;2023-09-19T02:52:46;100143.78;;;17.81;100.00
829;BME280;396;52.558;13.188;2023-09-19T02:55:14;100159.13;;;17.85;100.00
829;BME280;396;52.558;13.188;2023-09-19T02:57:45;100164.03;;;17.76;100.00
829;BME280;396;52.558;13.188;2023-09-19T03:00:13;100167.94;;;17.75;100.00
829;BME280;396;52.558;13.188;2023-09-19T03:02:40;100166.16;;;17.67;100.00
829;BME280;396;52.558;13.188;2023-09-19T03:05:08;100170.50;;;17.68;100.00
829;BME280;396;52.558;13.188;2023-09-19T03:07:36;100170.13;;;17.70;100.00
829;BME280;396;52.558;13.188;2023-09-19T03:10:06;100168.53;;;17.69;100.00
829;BME280;396;52.558;13.188;2023-09-19T03:12:33;100182.25;;;17.69;100.00
829;BME280;396;52.558;13.188;2023-09-19T03:15:00;100180.66;;;17.68;100.00
829;BME280;396;52.558;13.188;2023-09-19T03:17:27;100183.41;;;17.68;100.00
829;BME280;396;52.558;13.188;2023-09-19T03:19:54;100182.31;;;17.72;100.00
829;BME280;396;52.558;13.188;2023-09-19T03:22:29;100189.84;;;17.75;100.00
829;BME280;396;52.558;13.188;2023-09-19T03:25:07;100186.63;;;17.73;100.00
829;BME280;396;52.558;13.188;2023-09-19T03:27:37;100200.00;;;17.75;100.00
829;BME280;396;52.558;13.188;2023-09-19T03:30:05;100196.72;;;17.69;100.00
829;BME280;396;52.558;13.188;2023-09-19T03:32:34;100193.56;;;17.67;100.00
829;BME280;396;52.558;13.188;2023-09-19T03:35:01;100200.63;;;17.68;100.00
829;BME280;396;52.558;13.188;2023-09-19T03:37:30;100201.78;;;17.67;100.00
829;BME280;396;52.558;13.188;2023-09-19T03:39:57;100213.16;;;17.69;100.00
829;BME280;396;52.558;13.188;2023-09-19T03:42:25;100211.50;;;17.64;100.00
829;BME280;396;52.558;13.188;2023-09-19T03:44:52;100214.59;;;17.63;100.00
829;BME280;396;52.558;13.188;2023-09-19T03:47:20;100212.28;;;17.65;100.00
829;BME280;396;52.558;13.188;2023-09-19T03:49:47;100226.34;;;17.63;100.00
829;BME280;396;52.558;13.188;2023-09-19T03:52:13;100211.50;;;17.64;100.00
829;BME280;396;52.558;13.188;2023-09-19T03:54:41;100217.97;;;17.56;100.00
829;BME280;396;52.558;13.188;2023-09-19T03:57:08;100222.03;;;17.62;100.00
829;BME280;396;52.558;13.188;2023-09-19T03:59:36;100223.88;;;17.58;100.00
829;BME280;396;52.558;13.188;2023-09-19T04:02:03;100217.97;;;17.56;100.00
829;BME280;396;52.558;13.188;2023-09-19T04:04:36;100228.59;;;17.58;100.00
829;BME280;396;52.558;13.188;2023-09-19T04:07:03;100218.75;;;17.57;100.00
829;BME280;396;52.558;13.188;2023-09-19T04:09:30;100228.41;;;17.51;100.00
829;BME280;396;52.558;13.188;2023-09-19T04:11:57;100225.50;;;17.44;100.00
829;BME280;396;52.558;13.188;2023-09-19T04:14:23;100229.84;;;17.45;99.41
829;BME280;396;52.558;13.188;2023-09-19T04:16:51;100232.31;;;17.50;99.26
829;BME280;396;52.558;13.188;2023-09-19T04:19:18;100232.22;;;17.46;99.30
829;BME280;396;52.558;13.188;2023-09-19T04:21:46;100237.31;;;17.48;99.25
829;BME280;396;52.558;13.188;2023-09-19T04:24:13;100226.66;;;17.43;99.22
829;BME280;396;52.558;13.188;2023-09-19T04:26:39;100236.81;;;17.42;98.80
829;BME280;396;52.558;13.188;2023-09-19T04:29:07;100243.88;;;17.43;97.89
829;BME280;396;52.558;13.188;2023-09-19T04:31:36;100247.66;;;17.38;98.62
829;BME280;396;52.558;13.188;2023-09-19T04:34:06;100256.94;;;17.34;97.01
829;BME280;396;52.558;13.188;2023-09-19T04:36:34;100256.16;;;17.33;96.70
829;BME280;396;52.558;13.188;2023-09-19T04:39:02;100252.13;;;17.27;98.34
829;BME280;396;52.558;13.188;2023-09-19T04:41:31;100259.06;;;17.25;98.56
829;BME280;396;52.558;13.188;2023-09-19T04:43:59;100259.88;;;17.25;97.52
829;BME280;396;52.558;13.188;2023-09-19T04:46:26;100261.38;;;17.23;97.94
829;BME280;396;52.558;13.188;2023-09-19T04:48:53;100257.94;;;17.26;98.45
829;BME280;396;52.558;13.188;2023-09-19T04:51:21;100267.19;;;17.21;99.02
829;BME280;396;52.558;13.188;2023-09-19T04:53:48;100264.72;;;17.16;98.84
829;BME280;396;52.558;13.188;2023-09-19T04:56:15;100265.00;;;17.11;99.32
829;BME280;396;52.558;13.188;2023-09-19T04:58:42;100272.78;;;17.09;99.72
829;BME280;396;52.558;13.188;2023-09-19T05:01:08;100272.31;;;17.07;98.72
829;BME280;396;52.558;13.188;2023-09-19T05:03:37;100275.94;;;17.11;98.27
829;BME280;396;52.558;13.188;2023-09-19T05:06:04;100274.78;;;17.12;99.10
829;BME280;396;52.558;13.188;2023-09-19T05:08:33;100284.25;;;17.14;99.34
829;BME280;396;52.558;13.188;2023-09-19T05:11:01;100284.94;;;17.11;98.84
829;BME280;396;52.558;13.188;2023-09-19T05:13:28;100290.78;;;17.10;99.10
829;BME280;396;52.558;13.188;2023-09-19T05:15:59;100289.00;;;17.02;98.92
829;BME280;396;52.558;13.188;2023-09-19T05:18:27;100283.81;;;16.97;99.21
829;BME280;396;52.558;13.188;2023-09-19T05:20:53;100291.66;;;16.98;99.30
829;BME280;396;52.558;13.188;2023-09-19T05:23:20;100288.13;;;16.98;100.00
829;BME280;396;52.558;13.188;2023-09-19T05:25:48;100290.44;;;16.96;100.00
829;BME280;396;52.558;13.188;2023-09-19T05:28:14;100290.31;;;16.92;100.00
829;BME280;396;52.558;13.188;2023-09-19T05:30:41;100302.31;;;16.87;100.00
829;BME280;396;52.558;13.188;2023-09-19T05:33:08;100302.75;;;16.89;100.00
829;BME280;396;52.558;13.188;2023-09-19T05:35:36;100299.91;;;16.86;100.00
829;BME280;396;52.558;13.188;2023-09-19T05:38:05;100307.16;;;16.78;100.00
829;BME280;396;52.558;13.188;2023-09-19T05:40:34;100312.69;;;16.82;100.00
829;BME280;396;52.558;13.188;2023-09-19T05:43:03;100315.78;;;16.80;100.00
829;BME280;396;52.558;13.188;2023-09-19T05:45:31;100317.75;;;16.80;100.00
829;BME280;396;52.558;13.188;2023-09-19T05:48:07;100321.28;;;16.80;100.00
829;BME280;396;52.558;13.188;2023-09-19T05:50:34;100325.94;;;16.80;100.00
829;BME280;396;52.558;13.188;2023-09-19T05:53:01;100340.31;;;16.77;100.00
829;BME280;396;52.558;13.188;2023-09-19T05:55:29;100343.16;;;16.80;100.00
829;BME280;396;52.558;13.188;2023-09-19T05:57:56;100342.47;;;16.83;100.00
829;BME280;396;52.558;13.188;2023-09-19T06:00:25;100347.22;;;16.86;100.00
829;BME280;396;52.558;13.188;2023-09-19T06:02:53;100356.25;;;16.87;100.00
829;BME280;396;52.558;13.188;2023-09-19T06:05:20;100362.25;;;16.93;100.00
829;BME280;396;52.558;13.188;2023-09-19T06:07:47;100365.78;;;16.93;100.00
829;BME280;396;52.558;13.188;2023-09-19T06:10:13;100360.41;;;16.97;100.00
829;BME280;396;52.558;13.188;2023-09-19T06:12:40;100368.56;;;17.09;98.71
829;BME280;396;52.558;13.188;2023-09-19T06:15:09;100364.31;;;17.11;97.67
829;BME280;396;52.558;13.188;2023-09-19T06:17:42;100365.75;;;17.21;99.24
829;BME280;396;52.558;13.188;2023-09-19T06:20:08;100370.97;;;17.26;98.36
829;BME280;396;52.558;13.188;2023-09-19T06:22:40;100371.16;;;17.33;98.79
829;BME280;396;52.558;13.188;2023-09-19T06:25:07;100369.13;;;17.46;98.09
829;BME280;396;52.558;13.188;2023-09-19T06:27:37;100373.97;;;17.53;97.33
829;BME280;396;52.558;13.188;2023-09-19T06:30:05;100372.31;;;17.64;96.32
829;BME280;396;52.558;13.188;2023-09-19T06:32:33;100373.75;;;17.74;95.79
829;BME280;396;52.558;13.188;2023-09-19T06:35:02;100378.69;;;17.84;94.72
829;BME280;396;52.558;13.188;2023-09-19T06:37:32;100383.28;;;17.96;92.79
829;BME280;396;52.558;13.188;2023-09-19T06:39:59;100382.72;;;18.06;92.88
829;BME280;396;52.558;13.188;2023-09-19T06:42:26;100388.38;;;18.13;94.06
829;BME280;396;52.558;13.188;2023-09-19T06:44:53;100396.22;;;18.30;91.51
829;BME280;396;52.558;13.188;2023-09-19T06:47:21;100379.66;;;18.43;89.94
829;BME280;396;52.558;13.188;2023-09-19T06:49:51;100389.25;;;18.52;89.72
829;BME280;396;52.558;13.188;2023-09-19T06:52:19;100391.50;;;18.66;89.94
829;BME280;396;52.558;13.188;2023-09-19T06:54:47;100397.31;;;18.80;89.98
829;BME280;396;52.558;13.188;2023-09-19T06:57:15;100397.88;;;18.89;86.74
829;BME280;396;52.558;13.188;2023-09-19T06:59:42;100394.03;;;18.94;86.36
829;BME280;396;52.558;13.188;2023-09-19T07:02:10;100409.44;;;18.99;86.30
829;BME280;396;52.558;13.188;2023-09-19T07:04:36;100412.31;;;19.06;87.04
829;BME280;396;52.558;13.188;2023-09-19T07:07:03;100415.88;;;19.06;84.73
829;BME280;396;52.558;13.188;2023-09-19T07:09:31;100422.22;;;19.10;84.47
829;BME280;396;52.558;13.188;2023-09-19T07:11:58;100430.84;;;19.09;84.01
829;BME280;396;52.558;13.188;2023-09-19T07:14:24;100434.59;;;19.01;81.92
829;BME280;396;52.558;13.188;2023-09-19T07:16:51;100443.13;;;18.96;83.70
829;BME280;396;52.558;13.188;2023-09-19T07:19:18;100455.22;;;18.95;82.45
829;BME280;396;52.558;13.188;2023-09-19T07:21:45;100456.47;;;18.97;81.45
829;BME280;396;52.558;13.188;2023-09-19T07:24:12;100457.25;;;18.98;80.07
829;BME280;396;52.558;13.188;2023-09-19T07:26:41;100455.69;;;18.97;80.28
829;BME280;396;52.558;13.188;2023-09-19T07:29:07;100450.81;;;18.90;82.44
829;BME280;396;52.558;13.188;2023-09-19T07:31:34;100452.78;;;18.89;84.49
829;BME280;396;52.558;13.188;2023-09-19T07:34:01;100450.59;;;18.99;81.57
829;BME280;396;52.558;13.188;2023-09-19T07:36:29;100452.56;;;18.98;81.26
829;BME280;396;52.558;13.188;2023-09-19T07:38:55;100456.31;;;18.90;79.46
829;BME280;396;52.558;13.188;2023-09-19T07:41:23;100463.84;;;18.93;77.99
829;BME280;396;52.558;13.188;2023-09-19T07:43:52;100471.28;;;18.93;78.97
829;BME280;396;52.558;13.188;2023-09-19T07:46:18;100482.91;;;19.05;77.61
829;BME280;396;52.558;13.188;2023-09-19T07:48:46;100480.38;;;19.16;76.55
829;BME280;396;52.558;13.188;2023-09-19T07:51:14;100492.09;;;19.13;76.97
829;BME280;396;52.558;13.188;2023-09-19T07:53:41;100493.03;;;19.21;76.03
829;BME280;396;52.558;13.188;2023-09-19T07:56:09;100497.72;;;19.20;75.40
829;BME280;396;52.558;13.188;2023-09-19T07:58:39;100497.50;;;19.09;75.37
829;BME280;396;52.558;13.188;2023-09-19T08:01:08;100492.03;;;19.09;75.58
829;BME280;396;52.558;13.188;2023-09-19T08:03:36;100499.22;;;18.98;75.36
829;BME280;396;52.558;13.188;2023-09-19T08:06:06;100488.25;;;18.98;74.93
829;BME280;396;52.558;13.188;2023-09-19T08:08:33;100471.13;;;18.85;77.24
829;BME280;396;52.558;13.188;2023-09-19T08:11:03;100489.31;;;18.74;77.39
829;BME280;396;52.558;13.188;2023-09-19T08:13:36;100486.38;;;18.67;77.31
829;BME280;396;52.558;13.188;2023-09-19T08:16:03;100492.41;;;18.57;78.36
829;BME280;396;52.558;13.188;2023-09-19T08:18:31;100494.00;;;18.58;79.00
829;BME280;396;52.558;13.188;2023-09-19T08:20:58;100489.69;;;18.57;78.53
829;BME280;396;52.558;13.188;2023-09-19T08:23:26;100490.84;;;18.56;79.25
829;BME280;396;52.558;13.188;2023-09-19T08:25:56;100499.34;;;18.51;78.33
829;BME280;396;52.558;13.188;2023-09-19T08:28:23;100496.16;;;18.49;79.96
829;BME280;396;52.558;13.188;2023-09-19T08:30:50;100504.91;;;18.54;79.98
829;BME280;396;52.558;13.188;2023-09-19T08:33:16;100505.94;;;18.65;78.15
829;BME280;396;52.558;13.188;2023-09-19T08:35:44;100500.66;;;18.73;78.22
829;BME280;396;52.558;13.188;2023-09-19T08:38:11;100496.84;;;18.77;78.77
829;BME280;396;52.558;13.188;2023-09-19T08:40:39;100507.06;;;18.80;77.29
829;BME280;396;52.558;13.188;2023-09-19T08:43:07;100503.34;;;18.88;77.71
829;BME280;396;52.558;13.188;2023-09-19T08:45:34;100514.78;;;18.90;76.28
829;BME280;396;52.558;13.188;2023-09-19T08:48:15;100511.22;;;18.90;73.54
829;BME280;396;52.558;13.188;2023-09-19T08:50:49;100511.75;;;18.96;72.89
829;BME280;396;52.558;13.188;2023-09-19T08:53:27;100511.44;;;19.01;72.95
829;BME280;396;52.558;13.188;2023-09-19T08:55:59;100510.50;;;18.93;72.74
829;BME280;396;52.558;13.188;2023-09-19T08:58:31;100526.88;;;18.89;73.32
829;BME280;396;52.558;13.188;2023-09-19T09:01:01;100516.06;;;18.97;71.67
829;BME280;396;52.558;13.188;2023-09-19T09:03:32;100524.97;;;19.09;69.96
829;BME280;396;52.558;13.188;2023-09-19T09:06:01;100525.75;;;19.10;70.58
829;BME280;396;52.558;13.188;2023-09-19T09:08:30;100538.91;;;19.20;71.04
829;BME280;396;52.558;13.188;2023-09-19T09:10:57;100534.88;;;19.33;68.57
829;BME280;396;52.558;13.188;2023-09-19T09:13:24;100534.09;;;19.33;68.12
829;BME280;396;52.558;13.188;2023-09-19T09:15:53;100541.38;;;19.25;69.01
829;BME280;396;52.558;13.188;2023-09-19T09:18:20;100536.34;;;19.27;69.29
829;BME280;396;52.558;13.188;2023-09-19T09:20:47;100531.34;;;19.33;68.92
829;BME280;396;52.558;13.188;2023-09-19T09:23:15;100527.88;;;19.36;68.74
829;BME280;396;52.558;13.188;2023-09-19T09:25:50;100533.88;;;19.41;68.75
829;BME280;396;52.558;13.188;2023-09-19T09:28:21;100534.44;;;19.51;68.23
829;BME280;396;52.558;13.188;2023-09-19T09:30:48;100536.97;;;19.59;67.93
829;BME280;396;52.558;13.188;2023-09-19T09:33:16;100530.69;;;19.59;68.04
829;BME280;396;52.558;13.188;2023-09-19T09:35:50;100529.81;;;19.55;67.48
829;BME280;396;52.558;13.188;2023-09-19T09:38:20;100535.16;;;19.48;66.86
829;BME280;396;52.558;13.188;2023-09-19T09:40:52;100535.91;;;19.45;66.86
829;BME280;396;52.558;13.188;2023-09-19T09:43:29;100547.94;;;19.21;67.16
829;BME280;396;52.558;13.188;2023-09-19T09:46:11;100540.88;;;19.20;67.50
829;BME280;396;52.558;13.188;2023-09-19T09:48:56;100539.38;;;19.22;68.78
829;BME280;396;52.558;13.188;2023-09-19T09:51:59;100534.53;;;19.35;68.60
829;BME280;396;52.558;13.188;2023-09-19T09:54:31;100543.25;;;19.60;63.86
829;BME280;396;52.558;13.188;2023-09-19T09:57:04;100545.88;;;19.72;60.06
829;BME280;396;52.558;13.188;2023-09-19T09:59:50;100545.66;;;19.81;58.31
829;BME280;396;52.558;13.188;2023-09-19T10:02:20;100550.28;;;19.77;59.44
829;BME280;396;52.558;13.188;2023-09-19T10:04:50;100551.16;;;19.81;57.69
829;BME280;396;52.558;13.188;2023-09-19T10:07:41;100544.56;;;19.85;59.98
829;BME280;396;52.558;13.188;2023-09-19T10:10:14;100537.66;;;19.95;57.96
829;BME280;396;52.558;13.188;2023-09-19T10:12:48;100544.88;;;20.03;59.09
829;BME280;396;52.558;13.188;2023-09-19T10:15:15;100543.34;;;20.06;60.02
829;BME280;396;52.558;13.188;2023-09-19T10:17:45;100537.41;;;20.04;58.41
829;BME280;396;52.558;13.188;2023-09-19T10:20:13;100537.66;;;19.95;58.33
829;BME280;396;52.558;13.188;2023-09-19T10:22:51;100547.47;;;19.96;58.16
829;BME280;396;52.558;13.188;2023-09-19T10:25:25;100547.00;;;19.90;58.66
829;BME280;396;52.558;13.188;2023-09-19T10:27:54;100544.69;;;19.93;55.72
829;BME280;396;52.558;13.188;2023-09-19T10:30:23;100548.78;;;20.02;57.62
829;BME280;396;52.558;13.188;2023-09-19T10:32:57;100545.41;;;20.12;58.56
829;BME280;396;52.558;13.188;2023-09-19T10:35:26;100551.84;;;20.20;55.57
829;BME280;396;52.558;13.188;2023-09-19T10:37:54;100537.53;;;20.34;55.82
829;BME280;396;52.558;13.188;2023-09-19T10:40:24;100548.84;;;20.52;54.90
829;BME280;396;52.558;13.188;2023-09-19T10:43:00;100538.91;;;20.70;53.52
829;BME280;396;52.558;13.188;2023-09-19T10:45:28;100547.38;;;20.84;53.96
829;BME280;396;52.558;13.188;2023-09-19T10:47:57;100541.59;;;20.93;52.45
829;BME280;396;52.558;13.188;2023-09-19T10:50:24;100548.84;;;21.05;54.24
829;BME280;396;52.558;13.188;2023-09-19T10:52:54;100549.06;;;21.23;53.71
829;BME280;396;52.558;13.188;2023-09-19T10:55:27;100552.28;;;21.28;52.34
829;BME280;396;52.558;13.188;2023-09-19T10:57:55;100546.84;;;21.32;51.71
829;BME280;396;52.558;13.188;2023-09-19T11:00:53;100558.00;;;21.42;51.15
829;BME280;396;52.558;13.188;2023-09-19T11:03:21;100552.53;;;21.46;50.62
829;BME280;396;52.558;13.188;2023-09-19T11:06:05;100551.84;;;21.53;52.46
829;BME280;396;52.558;13.188;2023-09-19T11:08:58;100553.63;;;21.72;50.21
829;BME280;396;52.558;13.188;2023-09-19T11:11:49;100576.69;;;21.94;50.50
829;BME280;396;52.558;13.188;2023-09-19T11:14:43;100570.81;;;22.36;48.65
829;BME280;396;52.558;13.188;2023-09-19T11:17:40;100557.72;;;22.77;46.93
829;BME280;396;52.558;13.188;2023-09-19T11:20:30;100574.94;;;23.19;46.27
829;BME280;396;52.558;13.188;2023-09-19T11:23:20;100573.09;;;23.44;45.58
829;BME280;396;52.558;13.188;2023-09-19T11:25:53;100566.78;;;23.47;43.93
829;BME280;396;52.558;13.188;2023-09-19T11:28:30;100567.16;;;23.38;46.38
829;BME280;396;52.558;13.188;2023-09-19T11:30:56;100572.78;;;23.60;44.44
829;BME280;396;52.558;13.188;2023-09-19T11:33:25;100572.72;;;23.49;46.30
829;BME280;396;52.558;13.188;2023-09-19T11:36:03;100576.16;;;23.21;45.25
829;BME280;396;52.558;13.188;2023-09-19T11:38:59;100574.75;;;23.63;45.68
829;BME280;396;52.558;13.188;2023-09-19T11:41:40;100562.22;;;24.05;43.63
829;BME280;396;52.558;13.188;2023-09-19T11:44:32;100565.44;;;24.50;44.11
829;BME280;396;52.558;13.188;2023-09-19T11:47:00;100572.56;;;24.58;43.17
829;BME280;396;52.558;13.188;2023-09-19T11:49:30;100570.59;;;24.44;41.57
829;BME280;396;52.558;13.188;2023-09-19T11:51:59;100578.88;;;24.55;42.17
829;BME280;396;52.558;13.188;2023-09-19T11:54:27;100578.50;;;24.53;41.61
829;BME280;396;52.558;13.188;2023-09-19T11:56:59;100570.16;;;24.38;42.50
829;BME280;396;52.558;13.188;2023-09-19T11:59:27;100573.28;;;23.98;43.04
829;BME280;396;52.558;13.188;2023-09-19T12:04:33;100575.53;;;23.56;44.15
829;BME280;396;52.558;13.188;2023-09-19T12:07:04;100575.78;;;23.26;45.50
829;BME280;396;52.558;13.188;2023-09-19T12:09:31;100574.47;;;22.99;45.00
829;BME280;396;52.558;13.188;2023-09-19T12:11:59;100577.41;;;22.72;46.15
829;BME280;396;52.558;13.188;2023-09-19T12:14:26;100576.50;;;22.54;48.25
829;BME280;396;52.558;13.188;2023-09-19T12:16:54;100578.44;;;22.50;46.17
829;BME280;396;52.558;13.188;2023-09-19T12:19:22;100584.56;;;22.80;47.21
829;BME280;396;52.558;13.188;2023-09-19T12:21:59;100580.03;;;23.09;42.85
829;BME280;396;52.558;13.188;2023-09-19T12:24:30;100584.19;;;23.51;44.72
829;BME280;396;52.558;13.188;2023-09-19T12:27:03;100589.84;;;23.80;42.51
829;BME280;396;52.558;13.188;2023-09-19T12:29:42;100587.13;;;23.98;42.67
829;BME280;396;52.558;13.188;2023-09-19T12:32:09;100585.97;;;24.09;42.54
829;BME280;396;52.558;13.188;2023-09-19T12:34:36;100580.47;;;24.41;41.93
829;BME280;396;52.558;13.188;2023-09-19T12:37:08;100578.06;;;24.33;41.32
829;BME280;396;52.558;13.188;2023-09-19T12:39:42;100584.78;;;24.17;41.50
829;BME280;396;52.558;13.188;2023-09-19T12:42:14;100565.78;;;23.91;43.21
829;BME280;396;52.558;13.188;2023-09-19T12:44:42;100568.94;;;24.04;43.09
829;BME280;396;52.558;13.188;2023-09-19T12:47:11;100572.44;;;23.79;42.09
829;BME280;396;52.558;13.188;2023-09-19T12:50:07;100572.25;;;23.29;43.60
829;BME280;396;52.558;13.188;2023-09-19T12:52:39;100574.56;;;23.20;43.06
829;BME280;396;52.558;13.188;2023-09-19T12:55:06;100569.31;;;22.94;43.40
829;BME280;396;52.558;13.188;2023-09-19T12:57:36;100580.53;;;22.71;44.77
829;BME280;396;52.558;13.188;2023-09-19T13:00:05;100579.94;;;22.44;45.08
829;BME280;396;52.558;13.188;2023-09-19T13:02:32;100582.84;;;22.13;45.61
829;BME280;396;52.558;13.188;2023-09-19T13:04:59;100569.59;;;21.92;47.34
829;BME280;396;52.558;13.188;2023-09-19T13:07:41;100570.34;;;21.89;47.54
829;BME280;396;52.558;13.188;2023-09-19T13:10:12;100573.53;;;21.91;47.54
829;BME280;396;52.558;13.188;2023-09-19T13:12:43;100578.88;;;21.77;47.17
829;BME280;396;52.558;13.188;2023-09-19T13:15:14;100566.34;;;21.83;47.32
829;BME280;396;52.558;13.188;2023-09-19T13:17:46;100576.66;;;21.90;48.03
829;BME280;396;52.558;13.188;2023-09-19T13:20:23;100578.72;;;21.97;45.98
829;BME280;396;52.558;13.188;2023-09-19T13:22:58;100573.50;;;21.88;47.15
829;BME280;396;52.558;13.188;2023-09-19T13:25:26;100572.47;;;21.66;48.88
829;BME280;396;52.558;13.188;2023-09-19T13:27:57;100571.25;;;21.63;47.21
829;BME280;396;52.558;13.188;2023-09-19T13:30:26;100565.78;;;21.67;47.32
829;BME280;396;52.558;13.188;2023-09-19T13:33:04;100566.22;;;21.73;47.91
829;BME280;396;52.558;13.188;2023-09-19T13:35:32;100559.22;;;21.82;47.88
829;BME280;396;52.558;13.188;2023-09-19T13:37:59;100572.31;;;21.89;47.85